• Join FlightAware (Why Join?)
  • Login
  • US Flag 
09:10AM EDT


 

Airport Tracker/Info


-or-


 

Live Flight TrackerFlight Track Log ✈ AWE18 ✈ 30-Apr-2013 ✈ KPHX - KJFK

Flight Track Log - Related Links

Times and Time Zones

All times are in EDT time to prevent confusion due to time zone crossing. See the AWE18 flight status page for this flight to view local times or setup timezone preferences in your user account.

Time Position Orientation Groundspeed Altitude Reporting Facility
EDT Latitude Longitude Course Direction KTS MPH feet Rate Location/Type
12:54AM 33.4410 -112.0340 272° West 166 191 2,500  Level FlightAware
12:54AM 33.4420 -112.0580 273° West 173 199 3,400 1,500 Climbing FlightAware
12:55AM 33.4430 -112.0710 275° West 188 216 3,500 480 Climbing FlightAware
12:55AM 33.4460 -112.1070 276° West 220 253 3,800 840 Climbing FlightAware
12:56AM 33.4480 -112.1370 275° West 239 275 4,300 1,380 Climbing FlightAware
12:56AM 33.4550 -112.1790 281° West 262 302 5,100 1,560 Climbing FlightAware
12:56AM 33.4660 -112.1980 305° West 280 322 5,500 1,920 Climbing FlightAware
12:56AM 33.4770 -112.2060 329° Northwest 290 334 5,900 2,160 Climbing FlightAware
12:57AM 33.4960 -112.2100 350° North 298 343 6,400 2,160 Climbing FlightAware
12:57AM 33.5170 -112.2020 18° North 301 346 7,000 2,160 Climbing FlightAware
12:57AM 33.5310 -112.1850 45° Northeast 301 346 7,500 2,160 Climbing FlightAware
12:57AM 33.5380 -112.1600 71° East 296 341 8,100 2,400 Climbing FlightAware
12:58AM 33.5430 -112.1240 81° East 295 339 9,100 2,220 Climbing FlightAware
12:58AM 33.5480 -112.0960 78° East 297 342 9,600 1,800 Climbing FlightAware
12:59AM 33.5600 -112.0230 79° East 316 364 10,900 1,260 Climbing FlightAware
12:59AM 33.5710 -111.9600 78° East 346 398 11,300 780 Climbing FlightAware
01:00AM 33.5860 -111.8700 79° East 383 441 12,000 1,200 Climbing FlightAware
01:01AM 33.6030 -111.7740 78° East 399 459 13,100 1,740 Climbing FlightAware
01:02AM 33.6170 -111.6920 78° East 398 458 14,500 2,100 Climbing FlightAware
01:02AM 33.6310 -111.6050 79° East 399 459 15,900 1,740 Climbing FlightAware
01:03AM 33.6540 -111.4710 78° East 408 470 17,600 1,260 Climbing FlightAware
01:04AM 33.6740 -111.3640 77° East 426 490 18,400 1,020 Climbing FlightAware
01:05AM 33.7150 -111.2720 62° Northeast 435 501 19,200 1,380 Climbing FlightAware
01:06AM 33.7560 -111.1820 61° Northeast 438 504 20,300 1,380 Climbing FlightAware
01:06AM 33.7990 -111.0890 61° Northeast 445 512 21,100 540 Climbing FlightAware
01:07AM 33.8390 -111.0020 61° Northeast 445 512 21,100 960 Level FlightAware
01:08AM 33.8760 -110.9220 61° Northeast 453 521 22,600 1,200 Climbing FlightAware
01:09AM 33.9270 -110.8120 61° Northeast 457 526 23,000 840 Climbing FlightAware
01:09AM 33.9760 -110.7040 61° Northeast 473 544 24,000 1,200 Climbing FlightAware
01:10AM 34.0180 -110.6130 61° Northeast 478 550 24,600 960 Climbing FlightAware
01:11AM 34.0670 -110.5050 61° Northeast 482 555 25,300 420 Climbing FlightAware
01:11AM 34.1090 -110.4130 61° Northeast 482 555 25,300 900 Level FlightAware
01:12AM 34.1540 -110.3140 61° Northeast 486 559 26,500 900 Climbing FlightAware
01:13AM 34.2000 -110.2130 61° Northeast 486 559 26,600 60 Climbing FlightAware
01:13AM 34.2370 -110.1320 61° Northeast 486 559 26,600  Level FlightAware
01:14AM 34.2740 -110.0510 61° Northeast 486 559 26,600  Level FlightAware
01:15AM 34.3110 -109.9700 61° Northeast 486 559 26,600  Level FlightAware
01:16AM 34.3570 -109.8690 61° Northeast 486 559 26,600 3,120 Level FlightAware
01:16AM 34.4114 -109.7397 61° Northeast 481 554 30,300 3,360 Climbing Albuquerque Center
01:17AM 34.4831 -109.5800 61° Northeast 483 556 31,100 780 Climbing Albuquerque Center
01:18AM 34.5436 -109.4411 62° Northeast 486 559 31,900 780 Climbing Albuquerque Center
01:19AM 34.6036 -109.3044 62° Northeast 483 556 32,800 120 Climbing Albuquerque Center
01:25AM 34.9660 -108.4710 62° Northeast 481 554 33,000  Climbing FlightAware
01:25AM 35.0110 -108.3640 63° Northeast 479 551 33,000  Level FlightAware
01:26AM 35.0520 -108.2690 62° Northeast 476 548 33,000  Level FlightAware
01:27AM 35.0930 -108.1740 62° Northeast 477 549 33,000  Level FlightAware
01:28AM 35.1390 -108.0650 63° Northeast 474 545 33,000  Level FlightAware
01:28AM 35.1800 -107.9680 63° Northeast 478 550 33,000  Level FlightAware
01:29AM 35.2330 -107.8430 63° Northeast 478 550 33,000  Level FlightAware
01:30AM 35.2780 -107.7350 63° Northeast 477 549 33,000  Level FlightAware
01:30AM 35.3160 -107.6450 63° Northeast 473 544 33,000  Level FlightAware
01:32AM 35.3800 -107.4910 63° Northeast 472 543 33,000  Level FlightAware
01:32AM 35.4200 -107.3950 63° Northeast 474 545 33,000  Level FlightAware
01:33AM 35.4610 -107.2960 63° Northeast 479 551 33,000  Level FlightAware
01:34AM 35.5010 -107.2000 63° Northeast 480 552 33,000  Level FlightAware
01:34AM 35.5460 -107.0910 63° Northeast 488 562 33,000 60 Level FlightAware
01:35AM 35.5850 -106.9970 63° Northeast 488 562 33,100 60 Climbing FlightAware
01:36AM 35.6330 -106.8780 64° Northeast 488 562 33,100 -120 Level FlightAware
01:36AM 35.6720 -106.7820 63° Northeast 488 562 33,000 -120 Descending FlightAware
01:37AM 35.7130 -106.6820 63° Northeast 474 545 33,000  Level FlightAware
01:38AM 35.7510 -106.5890 63° Northeast 472 543 33,000  Level FlightAware
01:38AM 35.7950 -106.4800 64° Northeast 471 542 33,000  Level FlightAware
01:39AM 35.8270 -106.4000 64° Northeast 470 541 33,000  Level FlightAware
01:40AM 35.8880 -106.2520 63° Northeast 470 541 33,000  Level FlightAware
01:41AM 35.9210 -106.1710 63° Northeast 470 541 33,000  Level FlightAware
01:41AM 35.9550 -106.0890 63° Northeast 470 541 33,000  Level FlightAware
01:42AM 35.9880 -106.0080 63° Northeast 470 541 33,000  Level FlightAware
01:43AM 36.0220 -105.9270 63° Northeast 470 541 33,000  Level FlightAware
01:44AM 36.0640 -105.8250 63° Northeast 470 541 33,000  Level FlightAware
01:44AM 36.0970 -105.7430 64° Northeast 470 541 33,000  Level FlightAware
01:45AM 36.1310 -105.6620 63° Northeast 470 541 33,000  Level FlightAware
01:46AM 36.1640 -105.5800 63° Northeast 470 541 33,000  Level FlightAware
01:46AM 36.1980 -105.4980 63° Northeast 470 541 33,000  Level FlightAware
01:47AM 36.2400 -105.3960 63° Northeast 470 541 33,000  Level FlightAware
01:48AM 36.2740 -105.3150 62° Northeast 470 541 33,000  Level FlightAware
01:48AM 36.3070 -105.2330 63° Northeast 470 541 33,000  Level FlightAware
01:49AM 36.3410 -105.1510 63° Northeast 470 541 33,000  Level FlightAware
01:50AM 36.4750 -104.7511 63° Northeast 477 549 33,100  Climbing Albuquerque Center
01:51AM 36.5325 -104.5992 65° Northeast 480 552 33,100 -60 Level Albuquerque Center
01:52AM 36.5911 -104.4461 64° Northeast 483 556 33,000 -60 Descending Albuquerque Center
01:53AM 36.6478 -104.2950 65° Northeast 479 551 33,000  Level Albuquerque Center
01:54AM 36.7006 -104.1564 65° Northeast 478 550 33,000  Level Albuquerque Center
01:55AM 36.7558 -104.0125 64° Northeast 481 554 33,000  Level Albuquerque Center
01:56AM 36.8181 -103.8433 65° Northeast 482 555 33,000  Level Albuquerque Center
01:57AM 36.8711 -103.6992 65° Northeast 480 552 33,000  Level Albuquerque Center
01:58AM 36.9247 -103.5533 65° Northeast 483 556 33,000  Level Albuquerque Center
01:59AM 36.9864 -103.3861 65° Northeast 478 550 33,000  Level Albuquerque Center
02:00AM 37.0394 -103.2417 65° Northeast 479 551 33,000  Level Albuquerque Center
02:01AM 37.0922 -103.0950 66° East 482 555 33,000  Level Albuquerque Center
02:02AM 37.1525 -102.9272 66° East 477 549 33,000  Level Albuquerque Center
02:03AM 37.2050 -102.7833 65° Northeast 476 548 33,000  Level Albuquerque Center
02:04AM 37.2569 -102.6403 65° Northeast 472 543 33,000  Level Albuquerque Center
02:05AM 37.3081 -102.4956 66° East 473 544 33,000  Level Albuquerque Center
02:06AM 37.3678 -102.3267 66° East 473 544 33,000  Level Albuquerque Center
02:07AM 37.4214 -102.1764 66° East 475 547 33,100  Climbing Albuquerque Center
02:08AM 37.4703 -102.0308 67° East 473 544 33,100 -60 Level Albuquerque Center
02:09AM 37.5217 -101.8861 66° East 473 544 33,000 -60 Descending Albuquerque Center
02:10AM 37.5639 -101.7650 66° East 472 543 33,000 -180 Level Kansas City Center
02:11AM 37.6136 -101.6194 67° East 471 542 32,700 -600 Descending Kansas City Center
02:12AM 37.6644 -101.4739 66° East 473 544 31,800 -900 Descending Kansas City Center
02:13AM 37.7236 -101.3025 66° East 475 547 31,000 -420 Descending Kansas City Center
02:14AM 37.7742 -101.1525 67° East 479 551 31,000  Level Kansas City Center
02:15AM 37.8256 -101.0025 67° East 479 551 31,000  Level Kansas City Center
02:16AM 37.8767 -100.8508 67° East 481 554 31,000  Level Kansas City Center
02:17AM 37.9258 -100.6694 71° East 482 555 31,000  Level Kansas City Center
02:18AM 37.9639 -100.5139 73° East 482 555 31,000  Level Kansas City Center
02:19AM 38.0022 -100.3600 72° East 479 551 31,000  Level Kansas City Center
02:20AM 38.0406 -100.2047 73° East 480 552 31,000  Level Kansas City Center
02:21AM 38.0839 -100.0239 73° East 479 551 31,000  Level Kansas City Center
02:22AM 38.1211 -99.8697 73° East 477 549 31,000  Level Kansas City Center
02:23AM 38.1594 -99.7161 72° East 477 549 31,000  Level Kansas City Center
02:24AM 38.1961 -99.5611 73° East 478 550 31,000  Level Kansas City Center
02:25AM 38.2381 -99.3928 72° East 480 552 31,000  Level Kansas City Center
02:26AM 38.2756 -99.2306 74° East 479 551 31,000  Level Kansas City Center
02:27AM 38.3147 -99.0678 73° East 480 552 31,000  Level Kansas City Center
02:28AM 38.3531 -98.9047 73° East 479 551 31,000  Level Kansas City Center
02:29AM 38.3933 -98.7397 73° East 485 558 31,000  Level Kansas City Center
02:30AM 38.4319 -98.5769 73° East 480 552 31,000  Level Kansas City Center
02:31AM 38.4694 -98.4147 74° East 476 548 31,000  Level Kansas City Center
02:37AM 38.6930 -97.4170 74° East 470 541 31,000  Level FlightAware
02:38AM 38.7120 -97.3320 74° East 470 541 31,000  Level FlightAware
02:39AM 38.7380 -97.2190 74° East 470 541 31,000  Level FlightAware
02:39AM 38.7580 -97.1270 74° East 470 541 31,000  Level FlightAware
02:40AM 38.7780 -97.0360 74° East 470 541 31,000  Level FlightAware
02:41AM 38.7990 -96.9450 73° East 470 541 31,000  Level FlightAware
02:41AM 38.8190 -96.8540 74° East 470 541 31,000  Level FlightAware
02:42AM 38.8390 -96.7630 74° East 470 541 31,000  Level FlightAware
02:43AM 38.8650 -96.6490 74° East 470 541 31,000  Level FlightAware
02:44AM 38.8850 -96.5570 74° East 470 541 31,000  Level FlightAware
02:44AM 38.9060 -96.4660 73° East 470 541 31,000  Level FlightAware
02:45AM 38.9260 -96.3750 74° East 470 541 31,000  Level FlightAware
02:46AM 38.9510 -96.2600 74° East 470 541 31,000  Level FlightAware
02:46AM 38.9720 -96.1690 73° East 470 541 31,000  Level FlightAware
02:47AM 38.9920 -96.0780 74° East 470 541 31,000  Level FlightAware
02:48AM 39.0000 -95.9740 84° East 31,000  Level FlightAware
02:49AM 39.0810 -95.5790 75° East 469 540 31,000  Level FlightAware
02:49AM 39.0420 -95.7700 255° West 469 540 31,000  Level FlightAware
02:50AM 39.0820 -95.5710 75° East 470 541 31,000  Level FlightAware
02:51AM 39.1050 -95.4590 75° East 469 540 31,000  Level FlightAware
02:52AM 39.1270 -95.3500 75° East 468 539 31,000  Level FlightAware
02:52AM 39.1410 -95.2760 76° East 467 537 31,000  Level FlightAware
02:53AM 39.1610 -95.1760 76° East 466 536 31,000  Level FlightAware
02:54AM 39.1760 -95.1000 76° East 465 535 31,000  Level FlightAware
02:54AM 39.1890 -95.0330 76° East 465 535 31,000  Level FlightAware
02:55AM 39.2040 -94.9570 76° East 466 536 31,000  Level FlightAware
02:56AM 39.2160 -94.8960 76° East 466 536 31,000  Level FlightAware
02:56AM 39.3260 -94.3270 76° East 465 535 31,000  Level FlightAware
02:57AM 39.3490 -94.2030 76° East 466 536 31,000  Level FlightAware
02:58AM 39.3700 -94.0950 76° East 464 534 31,000  Level FlightAware
02:58AM 39.3900 -93.9870 76° East 464 534 31,000  Level FlightAware
02:59AM 39.4120 -93.8670 77° East 464 534 31,000  Level FlightAware
03:00AM 39.4320 -93.7600 76° East 463 533 31,000  Level FlightAware
03:01AM 39.4550 -93.6360 76° East 464 534 31,000  Level FlightAware
03:01AM 39.4750 -93.5270 77° East 463 533 31,000  Level FlightAware
03:02AM 39.4960 -93.4110 77° East 463 533 31,000  Level FlightAware
03:03AM 39.5130 -93.3160 77° East 462 532 31,000  Level FlightAware
03:03AM 39.5350 -93.1950 77° East 461 531 31,000  Level FlightAware
03:04AM 39.5570 -93.0730 77° East 460 529 31,000  Level FlightAware
03:05AM 39.5790 -92.9490 77° East 460 529 31,000  Level FlightAware
03:06AM 39.6030 -92.8120 77° East 460 529 31,000  Level FlightAware
03:06AM 39.6190 -92.7200 77° East 460 529 31,000  Level FlightAware
03:07AM 39.6410 -92.5910 77° East 469 540 31,000  Level FlightAware
03:08AM 39.6640 -92.4620 77° East 468 539 31,000  Level FlightAware
03:08AM 39.6790 -92.3720 78° East 468 539 31,000  Level FlightAware
03:09AM 39.7010 -92.2440 77° East 468 539 31,000  Level FlightAware
03:10AM 39.7190 -92.1350 78° East 468 539 31,000  Level FlightAware
03:11AM 39.7410 -92.0080 77° East 468 539 31,000  Level FlightAware
03:11AM 39.7590 -91.8980 78° East 469 540 31,000  Level FlightAware
03:12AM 39.7790 -91.7760 78° East 469 540 31,000  Level FlightAware
03:13AM 39.8040 -91.6330 77° East 469 540 31,000  Level FlightAware
03:14AM 39.8230 -91.5110 78° East 466 536 31,000  Level FlightAware
03:14AM 39.8420 -91.3920 78° East 469 540 31,000  Level FlightAware
03:15AM 39.8600 -91.2800 78° East 469 540 31,000  Level FlightAware
03:16AM 39.8800 -91.1590 78° East 467 537 31,000  Level FlightAware
03:16AM 39.8980 -91.0440 78° East 465 535 31,000  Level FlightAware
03:17AM 39.9170 -90.9230 78° East 464 534 31,000  Level FlightAware
03:18AM 39.9340 -90.8160 78° East 463 533 31,000  Level FlightAware
03:19AM 39.9510 -90.7050 79° East 463 533 31,000  Level FlightAware
03:19AM 39.9690 -90.5950 78° East 463 533 31,000  Level FlightAware
03:20AM 39.9830 -90.5040 79° East 462 532 31,000  Level FlightAware
03:21AM 40.0050 -90.3590 79° East 462 532 31,000  Level FlightAware
03:21AM 40.0230 -90.2410 79° East 461 531 31,000  Level FlightAware
03:22AM 40.0390 -90.1310 79° East 462 532 31,000  Level FlightAware
03:23AM 40.0560 -90.0200 79° East 462 532 31,000  Level FlightAware
03:23AM 40.0740 -89.8970 79° East 462 532 31,000  Level FlightAware
03:24AM 40.0910 -89.7850 79° East 462 532 31,000  Level FlightAware
03:25AM 40.1080 -89.6660 79° East 461 531 31,000  Level FlightAware
03:26AM 40.1240 -89.5560 79° East 460 529 31,000  Level FlightAware
03:26AM 40.1400 -89.4460 79° East 460 529 31,000  Level FlightAware
03:27AM 40.1570 -89.3250 80° East 460 529 31,000  Level FlightAware
03:28AM 40.1730 -89.2170 79° East 460 529 31,000  Level FlightAware
03:28AM 40.1910 -89.0900 79° East 460 529 31,000  Level FlightAware
03:29AM 40.2060 -88.9810 80° East 460 529 31,000  Level FlightAware
03:30AM 40.2220 -88.8690 79° East 461 531 31,000  Level FlightAware
03:30AM 40.2380 -88.7490 80° East 461 531 31,000  Level FlightAware
03:31AM 40.2530 -88.6390 80° East 461 531 31,000  Level FlightAware
03:32AM 40.2680 -88.5310 80° East 461 531 31,000  Level FlightAware
03:33AM 40.2850 -88.4020 80° East 462 532 31,000  Level FlightAware
03:33AM 40.3000 -88.2920 80° East 462 532 31,000  Level FlightAware
03:34AM 40.3160 -88.1720 80° East 462 532 31,000  Level FlightAware
03:35AM 40.3310 -88.0620 80° East 463 533 31,000  Level FlightAware
03:35AM 40.3450 -87.9510 81° East 462 532 31,000  Level FlightAware
03:36AM 40.3610 -87.8280 80° East 461 531 31,000  Level FlightAware
03:37AM 40.3780 -87.7010 80° East 460 529 31,000  Level FlightAware
03:37AM 40.3920 -87.5890 81° East 461 531 31,000  Level FlightAware
03:38AM 40.4070 -87.4700 81° East 459 528 31,000  Level FlightAware
03:39AM 40.4190 -87.3700 81° East 459 528 31,000  Level FlightAware
03:40AM 40.4350 -87.2420 81° East 458 527 31,000  Level FlightAware
03:40AM 40.4480 -87.1350 81° East 457 526 31,000  Level FlightAware
03:41AM 40.4630 -87.0150 81° East 457 526 31,000  Level FlightAware
03:42AM 40.4780 -86.8920 81° East 456 525 31,000  Level FlightAware
03:42AM 40.4910 -86.7850 81° East 455 524 31,000  Level FlightAware
03:43AM 40.5040 -86.6740 81° East 454 522 31,000  Level FlightAware
03:44AM 40.5190 -86.5520 81° East 454 522 31,000  Level FlightAware
03:44AM 40.5320 -86.4400 81° East 456 525 31,000  Level FlightAware
03:45AM 40.5460 -86.3180 81° East 456 525 31,000  Level FlightAware
03:46AM 40.5580 -86.2110 82° East 459 528 31,000  Level FlightAware
03:47AM 40.5710 -86.1010 81° East 459 528 31,000  Level FlightAware
03:47AM 40.5850 -85.9710 82° East 459 528 31,000  Level FlightAware
03:48AM 40.5980 -85.8620 81° East 459 528 31,000  Level FlightAware
03:49AM 40.6100 -85.7490 82° East 458 527 31,000  Level FlightAware
03:49AM 40.6230 -85.6310 82° East 458 527 31,000  Level FlightAware
03:50AM 40.6350 -85.5180 82° East 452 520 31,000  Level FlightAware
03:51AM 40.6460 -85.4220 81° East 453 521 31,000 600 Level FlightAware
03:51AM 40.6600 -85.2850 82° East 453 521 31,900 1,200 Climbing FlightAware
03:52AM 40.6730 -85.1680 82° East 444 511 32,900 1,260 Climbing FlightAware
03:53AM 40.6840 -85.0610 82° East 441 507 33,700 1,200 Climbing FlightAware
03:54AM 40.6950 -84.9510 82° East 435 501 34,500 900 Climbing FlightAware
03:54AM 40.7070 -84.8360 82° East 435 501 35,000 300 Climbing FlightAware
03:55AM 40.7180 -84.7280 82° East 439 505 35,000  Level FlightAware
03:56AM 40.7300 -84.6160 82° East 442 509 35,000  Level FlightAware
03:56AM 40.7500 -84.5060 76° East 441 507 35,000  Level FlightAware
03:57AM 40.7690 -84.4020 76° East 440 506 35,000  Level FlightAware
03:58AM 40.7900 -84.2820 77° East 439 505 35,000  Level FlightAware
03:58AM 40.8090 -84.1760 77° East 439 505 35,000  Level FlightAware
03:59AM 40.8290 -84.0630 77° East 440 506 35,000  Level FlightAware
04:00AM 40.8480 -83.9570 77° East 441 507 35,000  Level FlightAware
04:01AM 40.8660 -83.8530 77° East 442 509 35,000  Level FlightAware
04:01AM 40.8880 -83.7310 77° East 444 511 35,000  Level FlightAware
04:02AM 40.9060 -83.6250 77° East 443 510 35,000  Level FlightAware
04:03AM 40.9200 -83.5060 81° East 450 518 35,000  Level FlightAware
04:03AM 40.9280 -83.4000 84° East 452 520 35,000  Level FlightAware
04:04AM 40.9380 -83.2720 84° East 452 520 35,000  Level FlightAware
04:05AM 40.9460 -83.1620 84° East 454 522 35,000  Level FlightAware
04:05AM 40.9540 -83.0540 84° East 455 524 35,000  Level FlightAware
04:06AM 40.9640 -82.9290 84° East 456 525 35,000  Level FlightAware
04:07AM 40.9720 -82.8170 85° East 457 526 35,000  Level FlightAware
04:08AM 40.9800 -82.7070 84° East 457 526 35,000  Level FlightAware
04:08AM 40.9890 -82.5780 85° East 458 527 35,000  Level FlightAware
04:09AM 40.9970 -82.4660 85° East 457 526 35,000  Level FlightAware
04:10AM 41.0050 -82.3570 84° East 458 527 35,000  Level FlightAware
04:10AM 41.0140 -82.2280 85° East 457 526 35,000  Level FlightAware
04:11AM 41.0210 -82.1220 85° East 456 525 35,000  Level FlightAware
04:12AM 41.0290 -81.9940 85° East 456 525 35,000  Level FlightAware
04:12AM 41.0370 -81.8830 85° East 456 525 35,000  Level FlightAware
04:13AM 41.0450 -81.7600 85° East 458 527 35,000  Level FlightAware
04:14AM 41.0520 -81.6430 85° East 459 528 35,000  Level FlightAware
04:15AM 41.0600 -81.5200 85° East 459 528 35,000  Level FlightAware
04:15AM 41.0670 -81.4060 85° East 459 528 35,000  Level FlightAware
04:16AM 41.0740 -81.2950 85° East 459 528 35,000  Level FlightAware
04:17AM 41.0810 -81.1710 86° East 460 529 35,000  Level FlightAware
04:17AM 41.0880 -81.0550 85° East 460 529 35,000  Level FlightAware
04:18AM 41.0940 -80.9470 86° East 460 529 35,000  Level FlightAware
04:19AM 41.1010 -80.8180 86° East 459 528 35,000  Level FlightAware
04:19AM 41.1070 -80.7060 86° East 460 529 35,000  Level FlightAware
04:20AM 41.1140 -80.5940 85° East 460 529 35,000  Level FlightAware
04:21AM 41.1200 -80.4700 86° East 459 528 35,000  Level FlightAware
04:22AM 41.1260 -80.3530 86° East 459 528 35,000  Level FlightAware
04:22AM 41.1330 -80.2300 86° East 456 525 35,000  Level FlightAware
04:23AM 41.1380 -80.1180 87° East 455 524 35,000  Level FlightAware
04:24AM 41.1430 -80.0280 86° East 455 524 35,000  Level FlightAware
04:24AM 41.1490 -79.9020 86° East 456 525 35,000  Level FlightAware
04:25AM 41.1540 -79.7900 87° East 457 526 35,000  Level FlightAware
04:26AM 41.1590 -79.6760 87° East 457 526 35,000  Level FlightAware
04:26AM 41.1640 -79.5690 86° East 458 527 35,000  Level FlightAware
04:27AM 41.1700 -79.4390 86° East 459 528 35,000  Level FlightAware
04:28AM 41.1740 -79.3400 87° East 460 529 35,000  Level FlightAware
04:29AM 41.1810 -79.1870 86° East 460 529 35,000  Level FlightAware
04:29AM 41.1850 -79.0830 87° East 460 529 35,000  Level FlightAware
04:30AM 41.1890 -78.9750 87° East 460 529 35,000  Level FlightAware
04:31AM 41.1940 -78.8470 87° East 461 531 35,000  Level FlightAware
04:31AM 41.1990 -78.7210 87° East 460 529 35,000  Level FlightAware
04:32AM 41.2050 -78.5700 87° East 459 528 35,000  Level FlightAware
04:33AM 41.2090 -78.4350 88° East 458 527 35,000  Level FlightAware
04:34AM 41.2130 -78.3230 87° East 458 527 35,000  Level FlightAware
04:34AM 41.2170 -78.2100 87° East 458 527 35,000  Level FlightAware
04:35AM 41.2187 -78.1579 87° East 456 525 35,000  Level FlightAware ADS-B
04:35AM 41.2210 -78.0900 87° East 456 525 35,000  Level FlightAware
04:36AM 41.2260 -77.9360 87° East 455 524 35,000  Level FlightAware
04:36AM 41.2285 -77.8438 88° East 455 524 35,000  Level FlightAware ADS-B
04:37AM 41.2310 -77.7571 88° East 455 524 35,000  Level FlightAware ADS-B
04:38AM 41.2350 -77.6260 88° East 455 524 35,000  Level FlightAware
04:38AM 41.2362 -77.5738 88° East 454 522 35,000  Level FlightAware ADS-B
04:39AM 41.2380 -77.5030 88° East 454 522 35,000  Level FlightAware
04:39AM 41.2408 -77.3990 88° East 455 524 35,000  Level FlightAware ADS-B
04:40AM 41.2431 -77.3104 88° East 456 525 35,000  Level FlightAware ADS-B
04:40AM 41.2452 -77.2236 88° East 456 525 35,000  Level FlightAware ADS-B
04:41AM 41.2474 -77.1345 88° East 458 527 35,000  Level FlightAware ADS-B
04:41AM 41.2494 -77.0481 88° East 458 527 35,000  Level FlightAware ADS-B
04:42AM 41.2514 -76.9629 88° East 458 527 35,000  Level FlightAware ADS-B
04:42AM 41.2533 -76.8773 88° East 458 527 35,000  Level FlightAware ADS-B
04:43AM 41.2551 -76.7906 88° East 458 527 35,000  Level FlightAware ADS-B
04:43AM 41.2567 -76.7048 89° East 449 517 35,000  Level FlightAware ADS-B
04:44AM 41.2572 -76.6495 89° East 450 518 35,000  Level FlightAware ADS-B
04:44AM 41.2546 -76.5940 94° East 451 519 35,000  Level FlightAware ADS-B
04:44AM 41.2482 -76.5112 96° East 449 517 35,000  Level FlightAware ADS-B
04:45AM 41.2419 -76.4280 96° East 450 518 35,000  Level FlightAware ADS-B
04:45AM 41.2356 -76.3454 96° East 450 518 35,000  Level FlightAware ADS-B
04:46AM 41.2291 -76.2618 96° East 451 519 35,000  Level FlightAware ADS-B
04:46AM 41.2226 -76.1788 96° East 451 519 35,000 -240 Level FlightAware ADS-B
04:47AM 41.2160 -76.0962 96° East 448 516 34,800 -1,740 Descending FlightAware ADS-B
04:47AM 41.2094 -76.0121 96° East 459 528 33,300 -3,120 Descending FlightAware ADS-B
04:48AM 41.2025 -75.9279 96° East 457 526 31,700 -2,880 Descending FlightAware ADS-B
04:48AM 41.1958 -75.8451 96° East 448 516 30,400 -2,460 Descending FlightAware ADS-B
04:49AM 41.1891 -75.7628 96° East 442 509 29,200 -2,280 Descending FlightAware ADS-B
04:49AM 41.1823 -75.6804 96° East 436 502 28,100 -2,280 Descending FlightAware ADS-B
04:50AM 41.1756 -75.6005 96° East 430 495 26,900 -2,400 Descending FlightAware ADS-B
04:50AM 41.1688 -75.5201 96° East 423 487 25,700 -2,280 Descending FlightAware ADS-B
04:51AM 41.1622 -75.4435 97° East 417 480 24,600 -2,160 Descending FlightAware ADS-B
04:51AM 41.1561 -75.3717 96° East 410 472 23,600 -2,220 Descending FlightAware ADS-B
04:52AM 41.1541 -75.3541 99° East 410 472 23,300 -1,800 Descending FlightAware ADS-B
04:52AM 41.1497 -75.3295 103° East 412 474 23,100 -720 Descending FlightAware ADS-B
04:52AM 41.1452 -75.3119 109° East 416 479 23,100 -180 Level FlightAware ADS-B
04:52AM 41.1220 -75.2414 114° Southeast 415 478 23,000 -120 Descending FlightAware ADS-B
04:53AM 41.0980 -75.1700 114° Southeast 415 478 23,000 -120 Level FlightAware ADS-B
04:53AM 41.0743 -75.1000 114° Southeast 411 473 22,900 -1,020 Descending FlightAware ADS-B
04:54AM 41.0505 -75.0299 114° Southeast 409 471 22,000 -1,200 Descending FlightAware ADS-B
04:54AM 41.0270 -74.9614 114° Southeast 401 461 21,700 -540 Descending FlightAware ADS-B
04:55AM 41.0048 -74.8962 114° Southeast 399 459 21,500 -480 Descending FlightAware ADS-B
04:55AM 40.9982 -74.8723 110° East 398 458 21,400 -420 Descending FlightAware ADS-B
04:55AM 40.9959 -74.8616 106° East 396 456 21,400 -540 Level FlightAware ADS-B
04:56AM 40.9871 -74.7893 99° East 393 452 21,100 -540 Descending FlightAware ADS-B
04:56AM 40.9793 -74.7177 98° East 394 453 20,900 -420 Descending FlightAware ADS-B
04:57AM 40.9714 -74.6455 98° East 395 455 20,700 -480 Descending FlightAware ADS-B
04:57AM 40.9691 -74.6246 98° East 394 453 20,600 -600 Descending FlightAware ADS-B
04:57AM 40.9635 -74.5737 98° East 392 451 20,400 -540 Descending FlightAware ADS-B
04:58AM 40.9564 -74.5085 98° East 388 447 20,200 -420 Descending FlightAware ADS-B
04:58AM 40.9483 -74.4359 98° East 387 445 20,000 -420 Descending FlightAware ADS-B
04:59AM 40.9405 -74.3656 98° East 387 445 19,800 -480 Descending FlightAware ADS-B
04:59AM 40.9352 -74.3191 99° East 389 448 19,600 -780 Descending FlightAware ADS-B
04:59AM 40.9336 -74.3086 101° East 390 449 19,500 -2,280 Descending FlightAware ADS-B
04:59AM 40.9321 -74.3009 104° East 393 452 19,300 -2,700 Descending FlightAware ADS-B
04:59AM 40.9289 -74.2882 108° East 395 455 19,100 -540 Descending FlightAware ADS-B
05:00AM 40.9058 -74.2216 115° Southeast 392 451 19,000 -120 Descending FlightAware ADS-B
05:00AM 40.8835 -74.1565 114° Southeast 388 447 19,000  Level FlightAware ADS-B
05:00AM 40.8747 -74.1308 114° Southeast 387 445 19,000  Level FlightAware ADS-B
05:01AM 40.8611 -74.0916 115° Southeast 387 445 19,000  Level FlightAware ADS-B
05:01AM 40.8520 -74.0654 115° Southeast 387 445 19,000 -240 Level FlightAware ADS-B
05:01AM 40.8385 -74.0266 115° Southeast 386 444 18,900 -1,740 Descending FlightAware ADS-B
05:01AM 40.8277 -73.9958 115° Southeast 386 444 18,100 -3,600 Descending FlightAware ADS-B
05:02AM 40.8159 -73.9619 115° Southeast 389 448 17,100 -3,360 Descending FlightAware ADS-B
05:02AM 40.7929 -73.8959 115° Southeast 381 438 15,500 -3,240 Descending FlightAware ADS-B
05:03AM 40.7794 -73.8576 115° Southeast 372 428 14,400 -3,540 Descending FlightAware ADS-B
05:03AM 40.7754 -73.8476 118° Southeast 371 427 14,100 -3,000 Descending FlightAware ADS-B
05:03AM 40.7704 -73.8379 124° Southeast 366 421 13,900 -2,580 Descending FlightAware ADS-B
05:03AM 40.7677 -73.8337 130° Southeast 386 444 13,800 -1,500 Descending FlightAware ADS-B
05:03AM 40.7660 -73.8312 132° Southeast 363 418 13,800 -1,380 Level FlightAware ADS-B
05:03AM 40.7579 -73.8206 135° Southeast 354 407 13,600 -2,760 Descending FlightAware ADS-B
05:03AM 40.7216 -73.7787 139° Southeast 341 392 12,100 -2,400 Descending FlightAware ADS-B
05:04AM 40.6952 -73.7485 139° Southeast 316 364 11,500 -1,500 Descending FlightAware ADS-B
05:04AM 40.6836 -73.7377 145° Southeast 308 354 11,300 -1,320 Descending FlightAware ADS-B
05:04AM 40.6715 -73.7302 155° Southeast 301 346 11,100 -2,160 Descending FlightAware ADS-B
05:05AM 40.6339 -73.7111 159° South 293 337 9,900 -2,280 Descending FlightAware ADS-B
05:05AM 40.6150 -73.7012 158° South 289 333 9,400 -2,220 Descending FlightAware ADS-B
05:05AM 40.5964 -73.6916 159° South 288 331 8,800 -2,340 Descending FlightAware ADS-B
05:05AM 40.5927 -73.6897 159° South 288 331 8,700 -2,040 Descending FlightAware ADS-B
05:05AM 40.5887 -73.6881 163° South 288 331 8,600 -2,280 Descending FlightAware ADS-B
05:05AM 40.5824 -73.6862 167° South 287 330 8,400 -2,280 Descending FlightAware ADS-B
05:05AM 40.5783 -73.6852 170° South 287 330 8,300 -2,040 Descending FlightAware ADS-B
05:05AM 40.5734 -73.6845 174° South 285 328 8,200 -2,280 Descending FlightAware ADS-B
05:06AM 40.5572 -73.6833 177° South 283 326 7,700 -2,160 Descending FlightAware ADS-B
05:06AM 40.5376 -73.6826 178° South 280 322 7,200 -2,220 Descending FlightAware ADS-B
05:06AM 40.5179 -73.6820 179° South 277 319 6,600 -2,400 Descending FlightAware ADS-B
05:06AM 40.5012 -73.6815 179° South 273 314 6,100 -2,160 Descending FlightAware ADS-B
05:07AM 40.4820 -73.6812 179° South 269 310 5,600 -2,280 Descending FlightAware ADS-B
05:07AM 40.4652 -73.6812 180° South 269 310 5,000 -2,700 Descending FlightAware ADS-B
05:07AM 40.4603 -73.6815 183° South 269 310 4,800 -2,580 Descending FlightAware ADS-B
05:07AM 40.4564 -73.6821 187° South 270 311 4,700 -2,040 Descending FlightAware ADS-B
05:07AM 40.4528 -73.6829 190° South 271 312 4,600 -2,280 Descending FlightAware ADS-B
05:07AM 40.4470 -73.6849 195° South 273 314 4,400 -2,520 Descending FlightAware ADS-B
05:07AM 40.4376 -73.6889 198° South 272 313 4,100 -2,400 Descending FlightAware ADS-B
05:07AM 40.4192 -73.6978 200° South 269 310 3,500 -1,920 Descending FlightAware ADS-B
05:08AM 40.4009 -73.7066 200° South 267 307 3,100 -1,740 Descending FlightAware ADS-B
05:08AM 40.3874 -73.7148 205° Southwest 270 311 2,700 -2,040 Descending FlightAware ADS-B
05:08AM 40.3839 -73.7183 217° Southwest 271 312 2,600 -1,500 Descending FlightAware ADS-B
05:08AM 40.3764 -73.7292 228° Southwest 271 312 2,400 -1,140 Descending FlightAware ADS-B
05:08AM 40.3723 -73.7391 241° Southwest 270 311 2,300 -840 Descending FlightAware ADS-B
05:08AM 40.3648 -73.7621 247° West 259 298 2,100 -600 Descending FlightAware ADS-B
05:09AM 40.3574 -73.7859 248° West 250 288 2,000 -540 Descending FlightAware ADS-B
05:09AM 40.3499 -73.8098 248° West 240 276 1,800 -780 Descending FlightAware ADS-B
05:09AM 40.3435 -73.8304 248° West 230 265 1,600 -420 Descending FlightAware ADS-B
05:10AM 40.3375 -73.8498 248° West 219 252 1,600  Level FlightAware ADS-B
05:10AM 40.3348 -73.8590 249° West 218 251 1,600  Level FlightAware ADS-B
05:10AM 40.3338 -73.8640 255° West 218 251 1,600  Level FlightAware ADS-B
05:10AM 40.3334 -73.8690 264° West 218 251 1,600  Level FlightAware ADS-B
05:10AM 40.3335 -73.8744 271° West 217 250 1,600  Level FlightAware ADS-B
05:10AM 40.3345 -73.8809 281° West 217 250 1,600  Level FlightAware ADS-B
05:10AM 40.3360 -73.8858 292° West 216 249 1,600  Level FlightAware ADS-B
05:10AM 40.3377 -73.8898 299° West 213 245 1,600  Level FlightAware ADS-B
05:10AM 40.3397 -73.8932 308° West 211 243 1,600  Level FlightAware ADS-B
05:10AM 40.3426 -73.8969 316° Northwest 211 243 1,600  Level FlightAware ADS-B
05:10AM 40.3450 -73.8993 323° Northwest 210 242 1,600  Level FlightAware ADS-B
05:10AM 40.3485 -73.9018 331° Northwest 209 241 1,600  Level FlightAware ADS-B
05:10AM 40.3543 -73.9045 340° North 205 236 1,600  Level FlightAware ADS-B
05:10AM 40.3572 -73.9053 348° North 205 236 1,600  Level FlightAware ADS-B
05:11AM 40.3675 -73.9070 353° North 203 234 1,600  Level FlightAware ADS-B
05:11AM 40.3813 -73.9089 354° North 203 234 1,600  Level FlightAware ADS-B
05:11AM 40.3926 -73.9105 354° North 203 234 1,600  Level FlightAware ADS-B
05:11AM 40.4072 -73.9125 354° North 204 235 1,600  Level FlightAware ADS-B
05:12AM 40.4216 -73.9145 354° North 204 235 1,600  Level FlightAware ADS-B
05:12AM 40.4363 -73.9166 354° North 204 235 1,600  Level FlightAware ADS-B
05:12AM 40.4437 -73.9176 354° North 204 235 1,600  Level FlightAware ADS-B
05:12AM 40.4477 -73.9176 360° North 202 232 1,600  Level FlightAware ADS-B
05:12AM 40.4512 -73.9167 11° North 200 230 1,600  Level FlightAware ADS-B
05:12AM 40.4562 -73.9139 23° Northeast 192 221 1,600  Level FlightAware ADS-B
05:12AM 40.4608 -73.9105 29° Northeast 186 214 1,600  Level FlightAware ADS-B
05:13AM 40.4725 -73.9018 29° Northeast 183 211 1,600  Level FlightAware ADS-B
05:13AM 40.4865 -73.8911 30° Northeast 171 197 1,600  Level FlightAware ADS-B
05:14AM 40.5163 -73.8680 31° Northeast 165 190 1,600  Level FlightAware ADS-B
05:14AM 40.5400 -73.8490 31° Northeast 165 190 1,600 -480 Level FlightAware
05:15AM 40.5590 -73.8350 29° Northeast 145 167 1,100 -960 Descending FlightAware
05:15AM 40.5660 -73.8290 33° Northeast 137 158 900 -780 Descending FlightAware
05:15AM 40.5800 -73.8190 28° Northeast 131 151 600 -660 Descending FlightAware
05:16AM 40.5960 -73.8060 32° Northeast 131 151 300 -600 Descending FlightAware
05:16AM 40.6080 -73.7960 32° Northeast 129 148 -720 Descending FlightAware
05:17AM 40.6220 -73.7860 28° Northeast 129 148  Level FlightAware